sensor_id;sensor_type;location;lat;lon;timestamp;P1;durP1;ratioP1;P2;durP2;ratioP2
15297;SDS011;7750;48.796;9.026;2023-07-31T00:00:36;5.10;;;3.37;;
15297;SDS011;7750;48.796;9.026;2023-07-31T00:05:37;5.00;;;2.40;;
15297;SDS011;7750;48.796;9.026;2023-07-31T00:10:40;3.03;;;1.70;;
15297;SDS011;7750;48.796;9.026;2023-07-31T00:53:08;4.20;;;2.10;;
15297;SDS011;7750;48.796;9.026;2023-07-31T00:58:39;3.00;;;2.00;;
15297;SDS011;7750;48.796;9.026;2023-07-31T01:03:43;3.07;;;1.80;;
15297;SDS011;7750;48.796;9.026;2023-07-31T01:09:20;6.67;;;2.43;;
15297;SDS011;7750;48.796;9.026;2023-07-31T01:14:35;3.30;;;1.80;;
15297;SDS011;7750;48.796;9.026;2023-07-31T01:20:24;5.23;;;2.10;;
15297;SDS011;7750;48.796;9.026;2023-07-31T01:31:31;3.50;;;1.90;;
15297;SDS011;7750;48.796;9.026;2023-07-31T01:54:33;5.30;;;2.30;;
15297;SDS011;7750;48.796;9.026;2023-07-31T01:59:34;3.30;;;2.33;;
15297;SDS011;7750;48.796;9.026;2023-07-31T02:04:35;3.73;;;2.10;;
15297;SDS011;7750;48.796;9.026;2023-07-31T02:09:35;3.60;;;1.83;;
15297;SDS011;7750;48.796;9.026;2023-07-31T02:14:36;4.13;;;2.00;;
15297;SDS011;7750;48.796;9.026;2023-07-31T02:19:37;2.60;;;1.67;;
15297;SDS011;7750;48.796;9.026;2023-07-31T02:24:37;3.40;;;1.90;;
15297;SDS011;7750;48.796;9.026;2023-07-31T02:29:38;2.90;;;1.90;;
15297;SDS011;7750;48.796;9.026;2023-07-31T04:09:50;7.27;;;2.00;;
15297;SDS011;7750;48.796;9.026;2023-07-31T05:26:18;5.27;;;2.90;;
15297;SDS011;7750;48.796;9.026;2023-07-31T06:21:36;6.70;;;3.10;;
15297;SDS011;7750;48.796;9.026;2023-07-31T06:49:19;4.57;;;2.70;;
15297;SDS011;7750;48.796;9.026;2023-07-31T06:54:38;4.43;;;2.80;;
15297;SDS011;7750;48.796;9.026;2023-07-31T07:11:35;5.90;;;2.87;;
15297;SDS011;7750;48.796;9.026;2023-07-31T07:23:00;4.73;;;2.43;;
15297;SDS011;7750;48.796;9.026;2023-07-31T07:58:00;6.97;;;2.50;;
15297;SDS011;7750;48.796;9.026;2023-07-31T08:03:25;6.57;;;2.90;;
15297;SDS011;7750;48.796;9.026;2023-07-31T08:08:39;6.77;;;2.90;;
15297;SDS011;7750;48.796;9.026;2023-07-31T08:19:19;6.32;;;2.53;;
15297;SDS011;7750;48.796;9.026;2023-07-31T08:24:20;6.70;;;3.33;;
15297;SDS011;7750;48.796;9.026;2023-07-31T08:29:21;5.43;;;2.60;;
15297;SDS011;7750;48.796;9.026;2023-07-31T08:34:25;5.17;;;2.57;;
15297;SDS011;7750;48.796;9.026;2023-07-31T08:39:35;5.73;;;2.60;;
15297;SDS011;7750;48.796;9.026;2023-07-31T08:44:39;7.13;;;3.20;;
15297;SDS011;7750;48.796;9.026;2023-07-31T08:49:41;5.87;;;2.60;;
15297;SDS011;7750;48.796;9.026;2023-07-31T08:54:43;6.67;;;2.93;;
15297;SDS011;7750;48.796;9.026;2023-07-31T08:59:44;7.00;;;3.00;;
15297;SDS011;7750;48.796;9.026;2023-07-31T09:05:01;4.07;;;2.60;;
15297;SDS011;7750;48.796;9.026;2023-07-31T09:10:14;4.80;;;2.93;;
15297;SDS011;7750;48.796;9.026;2023-07-31T09:15:15;6.30;;;3.23;;
15297;SDS011;7750;48.796;9.026;2023-07-31T09:20:26;9.43;;;3.53;;
15297;SDS011;7750;48.796;9.026;2023-07-31T09:25:43;5.70;;;2.93;;
15297;SDS011;7750;48.796;9.026;2023-07-31T09:30:53;6.27;;;3.23;;
15297;SDS011;7750;48.796;9.026;2023-07-31T09:35:58;6.70;;;3.30;;
15297;SDS011;7750;48.796;9.026;2023-07-31T09:41:02;8.30;;;3.10;;
15297;SDS011;7750;48.796;9.026;2023-07-31T09:46:12;5.77;;;2.90;;
15297;SDS011;7750;48.796;9.026;2023-07-31T09:51:26;7.43;;;4.20;;
15297;SDS011;7750;48.796;9.026;2023-07-31T09:56:31;8.80;;;3.20;;
15297;SDS011;7750;48.796;9.026;2023-07-31T10:01:45;6.33;;;2.90;;
15297;SDS011;7750;48.796;9.026;2023-07-31T10:06:46;6.23;;;3.00;;
15297;SDS011;7750;48.796;9.026;2023-07-31T10:11:53;5.40;;;3.00;;
15297;SDS011;7750;48.796;9.026;2023-07-31T10:17:00;9.30;;;3.27;;
15297;SDS011;7750;48.796;9.026;2023-07-31T10:22:06;10.73;;;3.90;;
15297;SDS011;7750;48.796;9.026;2023-07-31T10:27:18;12.73;;;4.00;;
15297;SDS011;7750;48.796;9.026;2023-07-31T10:32:19;8.20;;;4.17;;
15297;SDS011;7750;48.796;9.026;2023-07-31T10:37:24;7.90;;;3.20;;
15297;SDS011;7750;48.796;9.026;2023-07-31T10:42:30;5.83;;;3.57;;
15297;SDS011;7750;48.796;9.026;2023-07-31T10:53:22;7.10;;;3.63;;
15297;SDS011;7750;48.796;9.026;2023-07-31T10:58:33;7.30;;;3.30;;
15297;SDS011;7750;48.796;9.026;2023-07-31T11:03:42;7.37;;;3.40;;
15297;SDS011;7750;48.796;9.026;2023-07-31T11:08:49;8.33;;;3.47;;
15297;SDS011;7750;48.796;9.026;2023-07-31T11:19:27;4.90;;;3.03;;
15297;SDS011;7750;48.796;9.026;2023-07-31T11:24:51;5.70;;;3.00;;
15297;SDS011;7750;48.796;9.026;2023-07-31T11:30:02;7.03;;;3.57;;
15297;SDS011;7750;48.796;9.026;2023-07-31T11:35:03;6.57;;;3.37;;
15297;SDS011;7750;48.796;9.026;2023-07-31T11:40:06;8.33;;;3.60;;
15297;SDS011;7750;48.796;9.026;2023-07-31T11:45:14;8.63;;;4.17;;
15297;SDS011;7750;48.796;9.026;2023-07-31T11:50:15;7.87;;;2.73;;
15297;SDS011;7750;48.796;9.026;2023-07-31T11:55:16;6.75;;;3.30;;
15297;SDS011;7750;48.796;9.026;2023-07-31T12:00:17;6.10;;;3.20;;
15297;SDS011;7750;48.796;9.026;2023-07-31T12:05:21;9.30;;;3.30;;
15297;SDS011;7750;48.796;9.026;2023-07-31T12:10:43;6.70;;;3.77;;
15297;SDS011;7750;48.796;9.026;2023-07-31T12:15:45;8.60;;;3.67;;
15297;SDS011;7750;48.796;9.026;2023-07-31T12:20:49;8.90;;;4.60;;
15297;SDS011;7750;48.796;9.026;2023-07-31T12:31:11;6.30;;;3.23;;
15297;SDS011;7750;48.796;9.026;2023-07-31T12:36:18;6.47;;;3.40;;
15297;SDS011;7750;48.796;9.026;2023-07-31T12:41:21;6.73;;;3.53;;
15297;SDS011;7750;48.796;9.026;2023-07-31T12:46:21;5.60;;;3.27;;
15297;SDS011;7750;48.796;9.026;2023-07-31T12:51:22;6.70;;;3.60;;
15297;SDS011;7750;48.796;9.026;2023-07-31T12:56:23;6.70;;;3.47;;
15297;SDS011;7750;48.796;9.026;2023-07-31T13:01:23;8.07;;;3.33;;
15297;SDS011;7750;48.796;9.026;2023-07-31T13:06:24;6.47;;;3.00;;
15297;SDS011;7750;48.796;9.026;2023-07-31T13:11:25;5.60;;;3.13;;
15297;SDS011;7750;48.796;9.026;2023-07-31T13:16:28;5.77;;;3.17;;
15297;SDS011;7750;48.796;9.026;2023-07-31T13:21:29;4.63;;;3.20;;
15297;SDS011;7750;48.796;9.026;2023-07-31T13:26:30;6.83;;;3.63;;
15297;SDS011;7750;48.796;9.026;2023-07-31T13:31:30;5.40;;;3.23;;
15297;SDS011;7750;48.796;9.026;2023-07-31T13:36:34;6.40;;;3.20;;
15297;SDS011;7750;48.796;9.026;2023-07-31T13:41:36;7.53;;;3.23;;
15297;SDS011;7750;48.796;9.026;2023-07-31T13:46:46;6.77;;;3.60;;
15297;SDS011;7750;48.796;9.026;2023-07-31T13:51:50;7.53;;;3.40;;
15297;SDS011;7750;48.796;9.026;2023-07-31T13:56:50;5.90;;;3.03;;
15297;SDS011;7750;48.796;9.026;2023-07-31T14:01:51;6.00;;;3.13;;
15297;SDS011;7750;48.796;9.026;2023-07-31T14:06:52;5.07;;;3.03;;
15297;SDS011;7750;48.796;9.026;2023-07-31T14:11:53;5.60;;;2.87;;
15297;SDS011;7750;48.796;9.026;2023-07-31T14:16:54;8.90;;;3.20;;
15297;SDS011;7750;48.796;9.026;2023-07-31T14:21:54;6.03;;;2.80;;
15297;SDS011;7750;48.796;9.026;2023-07-31T14:26:55;11.10;;;3.80;;
15297;SDS011;7750;48.796;9.026;2023-07-31T14:31:56;6.07;;;3.00;;
15297;SDS011;7750;48.796;9.026;2023-07-31T14:36:56;7.53;;;3.40;;
15297;SDS011;7750;48.796;9.026;2023-07-31T14:41:57;6.30;;;3.47;;
15297;SDS011;7750;48.796;9.026;2023-07-31T14:46:58;6.20;;;3.23;;
15297;SDS011;7750;48.796;9.026;2023-07-31T14:51:58;8.20;;;3.57;;
15297;SDS011;7750;48.796;9.026;2023-07-31T15:38:53;5.90;;;2.70;;
15297;SDS011;7750;48.796;9.026;2023-07-31T16:11:27;4.67;;;3.63;;
15297;SDS011;7750;48.796;9.026;2023-07-31T16:16:33;5.63;;;3.43;;
15297;SDS011;7750;48.796;9.026;2023-07-31T16:22:10;7.03;;;3.40;;
15297;SDS011;7750;48.796;9.026;2023-07-31T16:27:32;5.57;;;3.67;;
15297;SDS011;7750;48.796;9.026;2023-07-31T16:32:48;5.00;;;2.93;;
15297;SDS011;7750;48.796;9.026;2023-07-31T16:37:51;6.27;;;3.47;;
15297;SDS011;7750;48.796;9.026;2023-07-31T16:42:58;6.60;;;3.57;;
15297;SDS011;7750;48.796;9.026;2023-07-31T16:48:00;6.27;;;3.20;;
15297;SDS011;7750;48.796;9.026;2023-07-31T16:53:04;6.63;;;3.30;;
15297;SDS011;7750;48.796;9.026;2023-07-31T16:58:11;5.73;;;3.37;;
15297;SDS011;7750;48.796;9.026;2023-07-31T17:08:16;6.90;;;4.27;;
15297;SDS011;7750;48.796;9.026;2023-07-31T17:13:31;5.97;;;3.07;;
15297;SDS011;7750;48.796;9.026;2023-07-31T17:18:32;5.07;;;3.00;;
15297;SDS011;7750;48.796;9.026;2023-07-31T17:28:52;7.90;;;3.23;;
15297;SDS011;7750;48.796;9.026;2023-07-31T17:33:53;7.47;;;3.10;;
15297;SDS011;7750;48.796;9.026;2023-07-31T17:38:54;4.23;;;2.63;;
15297;SDS011;7750;48.796;9.026;2023-07-31T17:43:55;7.47;;;3.27;;
15297;SDS011;7750;48.796;9.026;2023-07-31T17:49:11;5.70;;;3.40;;
15297;SDS011;7750;48.796;9.026;2023-07-31T17:54:21;6.20;;;3.00;;
15297;SDS011;7750;48.796;9.026;2023-07-31T17:59:25;4.40;;;2.70;;
15297;SDS011;7750;48.796;9.026;2023-07-31T18:04:26;5.20;;;3.00;;
15297;SDS011;7750;48.796;9.026;2023-07-31T18:09:56;7.27;;;3.47;;
15297;SDS011;7750;48.796;9.026;2023-07-31T18:14:56;6.50;;;3.57;;
15297;SDS011;7750;48.796;9.026;2023-07-31T18:19:57;5.00;;;2.83;;
15297;SDS011;7750;48.796;9.026;2023-07-31T18:24:58;4.23;;;2.70;;
15297;SDS011;7750;48.796;9.026;2023-07-31T18:30:01;4.00;;;2.47;;
15297;SDS011;7750;48.796;9.026;2023-07-31T18:35:02;4.20;;;2.80;;
15297;SDS011;7750;48.796;9.026;2023-07-31T18:40:03;7.23;;;3.47;;
15297;SDS011;7750;48.796;9.026;2023-07-31T18:56:12;6.00;;;3.83;;
15297;SDS011;7750;48.796;9.026;2023-07-31T19:01:13;5.73;;;3.13;;
15297;SDS011;7750;48.796;9.026;2023-07-31T19:12:00;7.37;;;3.57;;
15297;SDS011;7750;48.796;9.026;2023-07-31T19:43:47;6.80;;;3.30;;
15297;SDS011;7750;48.796;9.026;2023-07-31T19:48:51;6.60;;;3.60;;
15297;SDS011;7750;48.796;9.026;2023-07-31T20:21:12;6.03;;;3.77;;
15297;SDS011;7750;48.796;9.026;2023-07-31T20:32:37;5.50;;;3.23;;
15297;SDS011;7750;48.796;9.026;2023-07-31T20:37:57;5.80;;;3.60;;
15297;SDS011;7750;48.796;9.026;2023-07-31T20:48:52;7.27;;;3.50;;
15297;SDS011;7750;48.796;9.026;2023-07-31T20:53:57;7.63;;;3.47;;
15297;SDS011;7750;48.796;9.026;2023-07-31T20:59:30;4.53;;;3.33;;
15297;SDS011;7750;48.796;9.026;2023-07-31T21:10:14;7.13;;;3.10;;
15297;SDS011;7750;48.796;9.026;2023-07-31T21:15:43;6.83;;;3.20;;
15297;SDS011;7750;48.796;9.026;2023-07-31T21:20:47;7.60;;;3.77;;
15297;SDS011;7750;48.796;9.026;2023-07-31T21:32:01;5.80;;;3.60;;
15297;SDS011;7750;48.796;9.026;2023-07-31T22:10:36;6.00;;;3.70;;
15297;SDS011;7750;48.796;9.026;2023-07-31T22:15:46;6.30;;;3.57;;
15297;SDS011;7750;48.796;9.026;2023-07-31T22:21:30;7.07;;;4.57;;
15297;SDS011;7750;48.796;9.026;2023-07-31T22:26:51;5.47;;;3.23;;
15297;SDS011;7750;48.796;9.026;2023-07-31T22:32:01;7.17;;;3.23;;
15297;SDS011;7750;48.796;9.026;2023-07-31T22:37:48;6.37;;;3.50;;
15297;SDS011;7750;48.796;9.026;2023-07-31T22:43:01;7.53;;;3.77;;
15297;SDS011;7750;48.796;9.026;2023-07-31T22:53:48;6.60;;;3.70;;
15297;SDS011;7750;48.796;9.026;2023-07-31T22:58:52;6.27;;;3.73;;
15297;SDS011;7750;48.796;9.026;2023-07-31T23:03:52;6.77;;;4.40;;
15297;SDS011;7750;48.796;9.026;2023-07-31T23:14:50;6.70;;;4.17;;
15297;SDS011;7750;48.796;9.026;2023-07-31T23:19:54;6.20;;;3.83;;
15297;SDS011;7750;48.796;9.026;2023-07-31T23:24:57;5.63;;;3.63;;
15297;SDS011;7750;48.796;9.026;2023-07-31T23:29:58;6.43;;;4.23;;
15297;SDS011;7750;48.796;9.026;2023-07-31T23:35:14;6.23;;;3.90;;
15297;SDS011;7750;48.796;9.026;2023-07-31T23:51:54;5.17;;;4.00;;
15297;SDS011;7750;48.796;9.026;2023-07-31T23:57:07;5.27;;;3.90;;
